createdAt,value
2023-05-19T00:01:18.126Z,56.26
2023-05-19T00:06:27.143Z,56.36
2023-05-19T00:11:36.545Z,56.30
2023-05-19T00:16:44.143Z,56.44
2023-05-19T00:21:51.402Z,56.53
2023-05-19T00:26:58.517Z,56.39
2023-05-19T00:32:05.856Z,56.47
2023-05-19T00:37:12.974Z,56.41
2023-05-19T00:42:20.593Z,56.28
2023-05-19T00:47:28.230Z,56.55
2023-05-19T00:52:35.647Z,56.25
2023-05-19T00:57:43.866Z,56.48
2023-05-19T01:02:51.546Z,56.32
2023-05-19T01:07:58.593Z,56.37
2023-05-19T01:13:06.565Z,56.39
2023-05-19T01:18:16.274Z,56.53
2023-05-19T01:23:36.969Z,56.43
2023-05-19T01:29:00.910Z,56.38
2023-05-19T01:34:08.471Z,56.50
2023-05-19T01:39:16.458Z,56.42
2023-05-19T01:44:24.558Z,56.41
2023-05-19T01:49:31.858Z,56.38
2023-05-19T01:54:39.001Z,56.16
2023-05-19T01:59:53.917Z,56.32
2023-05-19T02:05:04.938Z,56.41
2023-05-19T02:10:13.302Z,56.34
2023-05-19T02:15:23.247Z,56.35
2023-05-19T02:20:30.885Z,56.29
2023-05-19T02:25:38.508Z,56.41
2023-05-19T02:30:45.783Z,56.51
2023-05-19T02:35:53.354Z,56.57
2023-05-19T02:41:01.148Z,56.57
2023-05-19T02:46:08.468Z,56.48
2023-05-19T02:51:15.861Z,56.31
2023-05-19T02:56:23.084Z,56.34
2023-05-19T03:01:30.230Z,56.45
2023-05-19T03:06:38.055Z,56.40
2023-05-19T03:11:45.091Z,56.50
2023-05-19T03:16:52.787Z,56.32
2023-05-19T03:21:59.959Z,56.45
2023-05-19T03:27:07.261Z,56.51
2023-05-19T03:32:14.417Z,56.62
2023-05-19T03:37:22.081Z,56.43
2023-05-19T03:42:29.692Z,56.52
2023-05-19T03:47:37.061Z,56.43
2023-05-19T03:52:47.100Z,56.69
2023-05-19T03:57:54.530Z,56.47
2023-05-19T04:03:01.978Z,56.36
2023-05-19T04:08:09.319Z,56.51
2023-05-19T04:13:16.650Z,56.47
2023-05-19T04:18:25.482Z,56.38
2023-05-19T04:23:33.549Z,56.34
2023-05-19T04:28:42.731Z,56.24
2023-05-19T04:33:50.181Z,56.37
2023-05-19T04:39:03.072Z,56.49
2023-05-19T04:44:11.076Z,56.45
2023-05-19T04:49:21.520Z,56.35
2023-05-19T04:54:29.008Z,56.64
2023-05-19T04:59:36.459Z,56.39
2023-05-19T05:04:44.497Z,56.26
2023-05-19T05:09:51.768Z,56.42
2023-05-19T05:14:59.583Z,56.51
2023-05-19T05:20:07.575Z,56.58
2023-05-19T05:25:16.730Z,56.43
2023-05-19T05:30:24.052Z,56.25
2023-05-19T05:35:31.426Z,56.35
2023-05-19T05:40:38.738Z,56.42
2023-05-19T05:45:46.054Z,56.29
2023-05-19T05:50:54.910Z,56.44
2023-05-19T05:56:02.191Z,56.32
2023-05-19T06:01:11.954Z,56.41
2023-05-19T06:06:18.845Z,56.39
2023-05-19T06:11:26.613Z,56.13
2023-05-19T06:16:33.676Z,56.38
2023-05-19T06:21:43.254Z,56.32
2023-05-19T06:26:50.979Z,56.39
2023-05-19T06:31:58.615Z,56.40
2023-05-19T06:37:06.362Z,56.46
2023-05-19T06:42:13.770Z,56.48
2023-05-19T06:47:21.122Z,56.55
2023-05-19T06:52:28.348Z,56.39
2023-05-19T06:57:36.498Z,56.52
2023-05-19T07:02:43.807Z,56.41
2023-05-19T07:07:50.914Z,56.50
2023-05-19T07:12:58.553Z,56.35
2023-05-19T07:18:06.058Z,56.39
2023-05-19T07:23:13.721Z,56.62
2023-05-19T07:28:22.448Z,56.53
2023-05-19T07:33:29.801Z,56.53
2023-05-19T07:38:37.089Z,56.42
2023-05-19T07:43:44.345Z,56.25
2023-05-19T07:48:51.652Z,56.61
2023-05-19T07:53:58.890Z,56.33
2023-05-19T07:59:06.193Z,56.36
2023-05-19T08:04:14.584Z,56.35
2023-05-19T08:09:22.047Z,56.50
2023-05-19T08:14:29.598Z,56.54
2023-05-19T08:19:36.996Z,56.31
2023-05-19T08:24:45.130Z,56.32
2023-05-19T08:29:52.711Z,56.68
2023-05-19T08:35:00.201Z,56.46
2023-05-19T08:40:09.271Z,56.37
2023-05-19T08:45:16.778Z,56.51
2023-05-19T08:50:26.556Z,56.87
2023-05-19T08:55:38.596Z,56.46
2023-05-19T09:00:46.143Z,56.57
2023-05-19T09:05:53.667Z,56.52
2023-05-19T09:11:01.117Z,56.48
2023-05-19T09:16:09.186Z,56.53
2023-05-19T09:21:16.734Z,56.56
2023-05-19T09:26:24.157Z,56.76
2023-05-19T09:31:34.283Z,56.49
2023-05-19T09:36:43.610Z,56.53
2023-05-19T09:41:53.013Z,56.59
2023-05-19T09:47:00.287Z,56.46
2023-05-19T09:52:07.939Z,56.37
2023-05-19T09:57:14.826Z,56.51
2023-05-19T10:02:24.882Z,56.80
2023-05-19T10:07:32.766Z,56.52
2023-05-19T10:12:40.205Z,56.53
2023-05-19T10:17:47.788Z,56.54
2023-05-19T10:22:55.534Z,56.51
2023-05-19T10:28:04.154Z,56.79
2023-05-19T10:33:14.282Z,56.58
2023-05-19T10:38:26.330Z,56.60
2023-05-19T10:43:40.566Z,56.31
2023-05-19T10:48:48.187Z,56.72
2023-05-19T10:53:55.677Z,56.71
2023-05-19T10:59:03.530Z,56.65
2023-05-19T11:04:12.796Z,56.77
2023-05-19T11:09:28.362Z,56.62
2023-05-19T11:14:41.868Z,56.61
2023-05-19T11:19:55.959Z,56.56
2023-05-19T11:25:03.068Z,56.64
2023-05-19T11:30:15.708Z,56.70
2023-05-19T11:35:23.090Z,56.68
2023-05-19T11:40:30.733Z,56.66
2023-05-19T11:45:37.888Z,56.74
2023-05-19T11:50:45.753Z,56.67
2023-05-19T11:55:53.190Z,56.65
2023-05-19T12:01:05.916Z,56.67
2023-05-19T12:06:17.950Z,56.81
2023-05-19T12:11:25.778Z,56.56
2023-05-19T12:16:38.979Z,56.76
2023-05-19T12:21:46.350Z,56.72
2023-05-19T12:26:53.621Z,56.75
2023-05-19T12:32:00.998Z,56.88
2023-05-19T12:37:08.255Z,56.61
2023-05-19T12:42:15.212Z,56.91
2023-05-19T12:47:23.112Z,56.62
2023-05-19T12:52:30.846Z,56.63
2023-05-19T12:57:39.017Z,56.98
2023-05-19T13:02:59.511Z,56.84
2023-05-19T13:08:09.449Z,56.68
2023-05-19T13:13:17.095Z,56.69
2023-05-19T13:18:24.812Z,56.88
2023-05-19T13:23:32.123Z,56.78
2023-05-19T13:28:39.218Z,56.97
2023-05-19T13:33:46.588Z,56.80
2023-05-19T13:38:53.673Z,57.04
2023-05-19T13:44:01.444Z,57.18
2023-05-19T13:49:09.337Z,56.89
2023-05-19T13:54:16.486Z,56.87
2023-05-19T13:59:23.847Z,56.98
2023-05-19T14:04:31.208Z,56.94
2023-05-19T14:09:38.618Z,56.74
2023-05-19T14:14:45.847Z,57.01
2023-05-19T14:19:52.825Z,56.77
2023-05-19T14:25:00.773Z,56.79
2023-05-19T14:30:08.820Z,56.99
2023-05-19T14:35:15.925Z,56.98
2023-05-19T14:40:23.284Z,56.86
2023-05-19T14:45:30.833Z,56.59
2023-05-19T14:50:38.136Z,56.66
2023-05-19T14:55:45.515Z,56.72
2023-05-19T15:00:52.847Z,57.02
2023-05-19T15:06:00.428Z,56.96
2023-05-19T15:11:07.774Z,56.65
2023-05-19T15:16:17.027Z,56.89
2023-05-19T15:21:25.945Z,56.73
2023-05-19T15:26:33.289Z,56.83
2023-05-19T15:31:40.450Z,56.92
2023-05-19T15:36:47.711Z,56.86
2023-05-19T15:41:55.241Z,56.99
2023-05-19T15:47:02.890Z,56.92
2023-05-19T15:52:10.426Z,56.70
2023-05-19T15:57:17.728Z,57.09
2023-05-19T16:02:25.158Z,56.67
2023-05-19T16:07:32.420Z,56.88
2023-05-19T16:12:39.812Z,56.78
2023-05-19T16:17:47.046Z,56.72
2023-05-19T16:22:54.099Z,57.06
2023-05-19T16:28:01.123Z,56.78
2023-05-19T16:33:08.237Z,56.96
2023-05-19T16:38:15.639Z,56.79
2023-05-19T16:43:22.996Z,56.94
2023-05-19T16:48:30.278Z,57.05
2023-05-19T16:53:37.306Z,56.86
2023-05-19T16:58:44.529Z,56.93
2023-05-19T17:03:51.965Z,56.96
2023-05-19T17:08:59.369Z,57.17
2023-05-19T17:14:08.518Z,57.06
2023-05-19T17:19:16.565Z,56.80
2023-05-19T17:24:23.626Z,56.74
2023-05-19T17:29:30.994Z,56.92
2023-05-19T17:34:39.586Z,56.93
2023-05-19T17:39:46.656Z,57.02
2023-05-19T17:44:54.127Z,57.00
2023-05-19T17:50:01.667Z,56.91
2023-05-19T17:55:10.041Z,56.68
2023-05-19T18:00:18.010Z,56.99
2023-05-19T18:05:25.893Z,56.99
2023-05-19T18:10:34.212Z,56.57
2023-05-19T18:15:41.733Z,56.79
2023-05-19T18:20:49.013Z,56.92
2023-05-19T18:25:56.279Z,57.15
2023-05-19T18:31:04.242Z,56.90
2023-05-19T18:36:11.721Z,56.98
2023-05-19T18:41:19.208Z,57.00
2023-05-19T18:46:26.748Z,56.78
2023-05-19T18:51:36.333Z,56.97
2023-05-19T18:56:43.561Z,56.97
2023-05-19T19:01:50.686Z,56.92
2023-05-19T19:06:57.954Z,56.80
2023-05-19T19:12:05.410Z,56.85
2023-05-19T19:17:12.604Z,56.77
2023-05-19T19:22:19.995Z,56.97
2023-05-19T19:27:31.654Z,57.00
2023-05-19T19:32:39.628Z,56.82
2023-05-19T19:37:47.304Z,56.86
2023-05-19T19:42:54.820Z,57.07
2023-05-19T19:48:02.507Z,56.95
2023-05-19T19:53:10.031Z,56.87
2023-05-19T19:58:17.449Z,56.95
2023-05-19T20:03:24.754Z,56.86
2023-05-19T20:08:32.079Z,56.95
2023-05-19T20:13:39.388Z,57.08
2023-05-19T20:18:46.628Z,57.00
2023-05-19T20:23:53.759Z,56.82
2023-05-19T20:29:00.993Z,56.82
2023-05-19T20:34:08.471Z,56.67
2023-05-19T20:39:15.677Z,56.89
2023-05-19T20:44:22.974Z,56.78
2023-05-19T20:49:30.291Z,57.04
2023-05-19T20:54:37.537Z,56.78
2023-05-19T20:59:44.671Z,56.72
2023-05-19T21:04:51.953Z,56.95
2023-05-19T21:09:59.439Z,57.03
2023-05-19T21:15:06.630Z,56.93
2023-05-19T21:20:14.399Z,56.83
2023-05-19T21:25:21.798Z,56.94
2023-05-19T21:30:29.221Z,57.16
2023-05-19T21:35:37.199Z,56.92
2023-05-19T21:40:44.398Z,57.10
2023-05-19T21:45:51.896Z,57.14
2023-05-19T21:50:59.041Z,57.02
2023-05-19T21:56:06.641Z,56.98
2023-05-19T22:01:14.715Z,57.10
2023-05-19T22:06:22.117Z,57.08
2023-05-19T22:11:29.191Z,56.97
2023-05-19T22:16:36.454Z,56.80
2023-05-19T22:21:43.844Z,56.88
2023-05-19T22:26:51.487Z,57.02
2023-05-19T22:31:58.743Z,56.84
2023-05-19T22:37:06.305Z,56.86
2023-05-19T22:42:13.545Z,57.15
2023-05-19T22:47:20.820Z,56.98
2023-05-19T22:52:28.431Z,56.88
2023-05-19T22:57:35.679Z,56.88
2023-05-19T23:02:44.260Z,56.99
2023-05-19T23:07:51.692Z,57.04
2023-05-19T23:12:58.796Z,56.92
2023-05-19T23:18:09.010Z,56.96
2023-05-19T23:23:16.412Z,56.90
2023-05-19T23:28:23.651Z,56.91
2023-05-19T23:33:30.706Z,56.89
2023-05-19T23:38:38.246Z,56.94
2023-05-19T23:43:45.598Z,57.17
2023-05-19T23:48:52.799Z,56.68
2023-05-19T23:54:00.278Z,57.17
2023-05-19T23:59:07.307Z,56.84
